createdAt,value
2023-05-05T00:01:07.721Z,101616.51
2023-05-05T00:03:36.997Z,101617.42
2023-05-05T00:06:06.020Z,101616.11
2023-05-05T00:08:34.506Z,101611.69
2023-05-05T00:11:03.056Z,101607.63
2023-05-05T00:13:31.589Z,101610.20
2023-05-05T00:16:00.924Z,101608.77
2023-05-05T00:18:29.691Z,101609.18
2023-05-05T00:20:58.074Z,101608.52
2023-05-05T00:23:26.781Z,101603.93
2023-05-05T00:25:57.497Z,101604.26
2023-05-05T00:28:28.647Z,101603.80
2023-05-05T00:30:56.868Z,101601.02
2023-05-05T00:33:26.123Z,101598.11
2023-05-05T00:35:54.521Z,101601.23
2023-05-05T00:38:23.742Z,101601.46
2023-05-05T00:40:52.019Z,101600.64
2023-05-05T00:43:20.204Z,101597.98
2023-05-05T00:45:57.403Z,101597.30
2023-05-05T00:48:26.474Z,101593.80
2023-05-05T00:50:54.754Z,101591.20
2023-05-05T00:53:23.548Z,101592.52
2023-05-05T00:55:52.357Z,101591.38
2023-05-05T00:58:20.726Z,101593.17
2023-05-05T01:00:49.009Z,101589.95
2023-05-05T01:03:17.352Z,101589.71
2023-05-05T01:05:58.536Z,101595.63
2023-05-05T01:08:55.708Z,101593.60
2023-05-05T01:11:31.614Z,101590.86
2023-05-05T01:14:19.395Z,101589.81
2023-05-05T01:17:00.371Z,101587.95
2023-05-05T01:19:50.516Z,101588.59
2023-05-05T01:22:23.215Z,101587.42
2023-05-05T01:25:15.110Z,101584.07
2023-05-05T01:28:01.053Z,101587.73
2023-05-05T01:30:53.363Z,101580.30
2023-05-05T01:33:27.782Z,101586.33
2023-05-05T01:36:07.736Z,101584.94
2023-05-05T01:38:42.574Z,101585.23
2023-05-05T01:41:28.552Z,101583.61
2023-05-05T01:44:01.140Z,101577.12
2023-05-05T01:46:30.708Z,101573.08
2023-05-05T01:48:59.052Z,101575.30
2023-05-05T01:51:28.784Z,101573.73
2023-05-05T01:54:00.195Z,101575.66
2023-05-05T01:56:30.629Z,101567.40
2023-05-05T01:59:01.216Z,101568.13
2023-05-05T02:01:30.552Z,101572.61
2023-05-05T02:03:59.621Z,101573.80
2023-05-05T02:06:32.678Z,101573.71
2023-05-05T02:09:03.782Z,101573.59
2023-05-05T02:11:32.697Z,101578.40
2023-05-05T02:14:02.353Z,101585.48
2023-05-05T02:16:31.356Z,101586.11
2023-05-05T02:19:05.283Z,101585.52
2023-05-05T02:21:34.569Z,101582.53
2023-05-05T02:24:03.751Z,101582.56
2023-05-05T02:26:35.708Z,101581.50
2023-05-05T02:29:14.627Z,101577.85
2023-05-05T02:31:53.431Z,101577.45
2023-05-05T02:34:26.680Z,101577.25
2023-05-05T02:37:03.323Z,101578.36
2023-05-05T02:39:43.643Z,101581.39
2023-05-05T02:42:21.367Z,101579.12
2023-05-05T02:44:52.215Z,101578.95
2023-05-05T02:47:21.216Z,101580.55
2023-05-05T02:49:50.837Z,101582.62
2023-05-05T02:52:19.310Z,101587.55
2023-05-05T02:54:48.002Z,101590.83
2023-05-05T02:57:21.457Z,101588.63
2023-05-05T03:00:09.914Z,101591.50
2023-05-05T03:02:54.392Z,101591.20
2023-05-05T03:05:25.302Z,101596.95
2023-05-05T03:08:37.036Z,101597.57
2023-05-05T03:11:11.694Z,101600.70
2023-05-05T03:13:44.112Z,101600.98
2023-05-05T03:16:18.534Z,101606.52
2023-05-05T03:18:50.093Z,101610.14
2023-05-05T03:21:19.301Z,101618.09
2023-05-05T03:23:47.776Z,101616.01
2023-05-05T03:26:20.264Z,101617.03
2023-05-05T03:28:49.072Z,101616.19
2023-05-05T03:31:22.183Z,101621.43
2023-05-05T03:33:54.122Z,101623.06
2023-05-05T03:36:25.086Z,101624.80
2023-05-05T03:38:55.707Z,101628.58
2023-05-05T03:41:25.517Z,101627.38
2023-05-05T03:43:54.197Z,101632.40
2023-05-05T03:46:23.584Z,101630.62
2023-05-05T03:48:52.396Z,101630.56
2023-05-05T03:51:20.779Z,101632.27
2023-05-05T03:53:49.576Z,101630.13
2023-05-05T03:56:18.064Z,101627.17
2023-05-05T03:58:46.762Z,101628.95
2023-05-05T04:01:15.462Z,101630.10
2023-05-05T04:03:43.709Z,101627.01
2023-05-05T04:06:12.319Z,101630.19
2023-05-05T04:08:40.809Z,101637.54
2023-05-05T04:11:09.097Z,101636.29
2023-05-05T04:13:37.681Z,101638.34
2023-05-05T04:16:06.443Z,101640.66
2023-05-05T04:18:34.696Z,101641.09
2023-05-05T04:21:03.475Z,101638.81
2023-05-05T04:23:32.134Z,101641.05
2023-05-05T04:26:00.954Z,101641.65
2023-05-05T04:28:29.624Z,101652.88
2023-05-05T04:30:59.555Z,101649.73
2023-05-05T04:33:28.848Z,101648.39
2023-05-05T04:35:57.335Z,101647.48
2023-05-05T04:38:26.058Z,101645.63
2023-05-05T04:40:54.920Z,101641.53
2023-05-05T04:43:23.716Z,101643.85
2023-05-05T04:45:53.809Z,101648.15
2023-05-05T04:48:23.495Z,101648.92
2023-05-05T04:50:52.965Z,101653.17
2023-05-05T04:53:21.266Z,101657.05
2023-05-05T04:55:50.143Z,101654.70
2023-05-05T04:58:19.345Z,101656.67
2023-05-05T05:00:50.273Z,101654.98
2023-05-05T05:03:23.285Z,101655.48
2023-05-05T05:05:51.746Z,101655.71
2023-05-05T05:08:20.178Z,101658.38
2023-05-05T05:10:48.645Z,101654.73
2023-05-05T05:13:16.949Z,101654.09
2023-05-05T05:15:45.974Z,101654.21
2023-05-05T05:18:14.458Z,101655.11
2023-05-05T05:20:42.900Z,101660.13
2023-05-05T05:23:12.062Z,101661.33
2023-05-05T05:25:43.756Z,101663.18
2023-05-05T05:28:12.748Z,101664.45
2023-05-05T05:30:47.681Z,101666.77
2023-05-05T05:33:16.581Z,101663.66
2023-05-05T05:35:45.883Z,101662.16
2023-05-05T05:38:15.407Z,101665.84
2023-05-05T05:40:44.423Z,101661.42
2023-05-05T05:43:14.013Z,101661.10
2023-05-05T05:45:43.656Z,101667.46
2023-05-05T05:48:16.209Z,101661.42
2023-05-05T05:50:45.341Z,101669.13
2023-05-05T05:53:14.227Z,101671.32
2023-05-05T05:55:45.956Z,101672.17
2023-05-05T05:58:14.949Z,101671.21
2023-05-05T06:00:43.881Z,101669.80
2023-05-05T06:03:13.829Z,101668.67
2023-05-05T06:05:43.175Z,101667.86
2023-05-05T06:08:12.656Z,101663.63
2023-05-05T06:10:45.574Z,101661.85
2023-05-05T06:13:17.154Z,101656.14
2023-05-05T06:15:47.952Z,101651.46
2023-05-05T06:18:16.475Z,101651.98
2023-05-05T06:20:45.254Z,101653.45
2023-05-05T06:23:14.768Z,101655.35
2023-05-05T06:25:47.964Z,101649.55
2023-05-05T06:28:16.448Z,101655.55
2023-05-05T06:30:44.933Z,101653.93
2023-05-05T06:33:13.520Z,101655.95
2023-05-05T06:35:41.797Z,101653.14
2023-05-05T06:38:10.489Z,101652.18
2023-05-05T06:40:39.185Z,101651.20
2023-05-05T06:43:07.975Z,101650.36
2023-05-05T06:45:43.796Z,101646.02
2023-05-05T06:48:12.974Z,101646.89
2023-05-05T06:50:41.163Z,101642.92
2023-05-05T06:53:09.212Z,101639.65
2023-05-05T06:55:37.476Z,101639.77
2023-05-05T06:58:06.068Z,101632.38
2023-05-05T07:00:34.399Z,101638.23
2023-05-05T07:03:02.758Z,101636.81
2023-05-05T07:05:30.965Z,101633.13
2023-05-05T07:07:59.574Z,101630.29
2023-05-05T07:10:28.447Z,101630.06
2023-05-05T07:12:56.864Z,101628.60
2023-05-05T07:15:29.105Z,101625.91
2023-05-05T07:17:58.588Z,101630.58
2023-05-05T07:20:27.945Z,101632.14
2023-05-05T07:22:56.260Z,101633.48
2023-05-05T07:25:24.478Z,101633.86
2023-05-05T07:27:55.604Z,101636.10
2023-05-05T07:30:26.249Z,101634.66
2023-05-05T07:32:55.628Z,101635.08
2023-05-05T07:35:23.897Z,101632.54
2023-05-05T07:37:52.607Z,101634.48
2023-05-05T07:40:21.113Z,101639.52
2023-05-05T07:42:49.976Z,101633.34
2023-05-05T07:45:18.162Z,101636.77
2023-05-05T07:47:46.801Z,101635.77
2023-05-05T07:50:15.481Z,101629.45
2023-05-05T07:52:50.042Z,101626.24
2023-05-05T07:55:23.190Z,101623.41
2023-05-05T07:57:51.847Z,101628.27
2023-05-05T08:00:21.874Z,101623.64
2023-05-05T08:02:50.142Z,101622.86
2023-05-05T08:05:19.977Z,101621.66
2023-05-05T08:07:48.171Z,101617.66
2023-05-05T08:10:16.549Z,101617.04
2023-05-05T08:12:45.679Z,101616.14
2023-05-05T08:15:14.449Z,101620.95
2023-05-05T08:17:49.728Z,101621.63
2023-05-05T08:20:19.717Z,101619.80
2023-05-05T08:22:48.502Z,101616.20
2023-05-05T08:25:17.081Z,101610.48
2023-05-05T08:27:46.291Z,101615.02
2023-05-05T08:30:17.572Z,101618.23
2023-05-05T08:32:47.271Z,101615.13
2023-05-05T08:35:16.334Z,101611.70
2023-05-05T08:37:47.554Z,101607.30
2023-05-05T08:40:16.618Z,101608.03
2023-05-05T08:42:46.119Z,101616.41
2023-05-05T08:45:16.260Z,101612.48
2023-05-05T08:47:49.498Z,101612.12
2023-05-05T08:50:48.442Z,101606.28
2023-05-05T08:53:19.609Z,101600.50
2023-05-05T08:55:51.733Z,101602.34
2023-05-05T08:58:21.555Z,101604.16
2023-05-05T09:00:50.993Z,101603.04
2023-05-05T09:03:19.651Z,101600.57
2023-05-05T09:05:48.021Z,101606.13
2023-05-05T09:08:17.938Z,101603.86
2023-05-05T09:10:47.475Z,101601.75
2023-05-05T09:13:15.806Z,101595.40
2023-05-05T09:15:44.936Z,101590.48
2023-05-05T09:18:13.631Z,101590.71
2023-05-05T09:20:42.006Z,101586.66
2023-05-05T09:23:15.949Z,101589.64
2023-05-05T09:25:46.334Z,101585.21
2023-05-05T09:28:18.265Z,101582.17
2023-05-05T09:30:47.478Z,101574.90
2023-05-05T09:33:29.313Z,101577.16
2023-05-05T09:35:58.635Z,101576.30
2023-05-05T09:38:26.903Z,101574.82
2023-05-05T09:40:55.806Z,101574.70
2023-05-05T09:43:24.801Z,101575.64
2023-05-05T09:46:07.477Z,101576.37
2023-05-05T09:48:36.338Z,101575.91
2023-05-05T09:51:04.596Z,101578.91
2023-05-05T09:53:45.475Z,101580.62
2023-05-05T09:56:18.712Z,101575.42
2023-05-05T09:58:49.698Z,101570.46
2023-05-05T10:01:26.935Z,101564.73
2023-05-05T10:03:55.580Z,101565.94
2023-05-05T10:06:40.074Z,101565.09
2023-05-05T10:09:08.200Z,101561.27
2023-05-05T10:11:37.239Z,101558.05
2023-05-05T10:14:09.017Z,101561.73
2023-05-05T10:16:43.612Z,101557.27
2023-05-05T10:19:16.415Z,101557.13
2023-05-05T10:22:02.255Z,101558.94
2023-05-05T10:24:52.516Z,101551.84
2023-05-05T10:27:24.589Z,101554.26
2023-05-05T10:30:06.619Z,101558.38
2023-05-05T10:32:59.293Z,101554.60
2023-05-05T10:35:40.017Z,101547.45
2023-05-05T10:38:10.062Z,101546.83
2023-05-05T10:40:46.097Z,101544.90
2023-05-05T10:43:14.941Z,101543.20
2023-05-05T10:45:49.098Z,101541.16
2023-05-05T10:48:47.412Z,101539.55
2023-05-05T10:51:38.702Z,101540.14
2023-05-05T10:54:17.193Z,101534.98
2023-05-05T10:56:48.832Z,101535.61
2023-05-05T10:59:47.848Z,101532.86
2023-05-05T11:02:22.173Z,101535.00
2023-05-05T11:05:20.737Z,101534.30
2023-05-05T11:07:50.976Z,101529.59
2023-05-05T11:10:20.967Z,101528.15
2023-05-05T11:12:52.359Z,101522.77
2023-05-05T11:15:28.116Z,101523.55
2023-05-05T11:18:05.822Z,101520.43
2023-05-05T11:20:39.935Z,101509.84
2023-05-05T11:23:08.285Z,101512.39
2023-05-05T11:25:37.409Z,101508.34
2023-05-05T11:28:08.737Z,101509.72
2023-05-05T11:30:59.381Z,101506.98
2023-05-05T11:33:30.571Z,101506.52
2023-05-05T11:35:59.884Z,101503.91
2023-05-05T11:39:05.831Z,101503.93
2023-05-05T11:41:53.127Z,101505.36
2023-05-05T11:44:30.987Z,101506.91
2023-05-05T11:47:03.436Z,101504.11
2023-05-05T11:49:36.194Z,101506.43
2023-05-05T11:52:06.942Z,101505.03
2023-05-05T11:54:36.986Z,101504.08
2023-05-05T11:57:07.496Z,101501.08
2023-05-05T11:59:37.723Z,101499.48
2023-05-05T12:02:06.215Z,101499.89
2023-05-05T12:04:40.151Z,101494.66
2023-05-05T12:07:15.539Z,101489.45
2023-05-05T12:09:45.730Z,101487.35
2023-05-05T12:12:15.212Z,101488.37
2023-05-05T12:14:47.609Z,101487.06
2023-05-05T12:17:16.159Z,101482.92
2023-05-05T12:19:55.424Z,101480.33
2023-05-05T12:22:27.491Z,101478.91
2023-05-05T12:25:04.747Z,101474.81
2023-05-05T12:27:33.010Z,101474.50
2023-05-05T12:30:18.496Z,101474.85
2023-05-05T12:32:46.863Z,101476.27
2023-05-05T12:35:17.188Z,101477.23
2023-05-05T12:37:46.111Z,101478.52
2023-05-05T12:41:02.795Z,101474.91
2023-05-05T12:43:35.595Z,101471.00
2023-05-05T12:46:05.496Z,101472.36
2023-05-05T12:48:35.186Z,101469.27
2023-05-05T12:51:10.768Z,101471.10
2023-05-05T12:53:39.158Z,101471.49
2023-05-05T12:56:36.808Z,101470.54
2023-05-05T12:59:25.884Z,101469.94
2023-05-05T13:02:02.982Z,101467.06
2023-05-05T13:04:31.935Z,101465.57
2023-05-05T13:07:13.948Z,101461.36
2023-05-05T13:09:42.446Z,101457.44
2023-05-05T13:12:14.378Z,101455.59
2023-05-05T13:14:43.572Z,101453.91
2023-05-05T13:17:12.774Z,101449.17
2023-05-05T13:19:46.642Z,101450.25
2023-05-05T13:22:15.142Z,101453.05
2023-05-05T13:24:51.519Z,101453.49
2023-05-05T13:27:21.459Z,101455.41
2023-05-05T13:29:49.926Z,101449.45
2023-05-05T13:32:18.181Z,101449.89
2023-05-05T13:34:46.337Z,101449.35
2023-05-05T13:37:14.927Z,101450.46
2023-05-05T13:39:44.027Z,101449.71
2023-05-05T13:42:12.313Z,101445.75
2023-05-05T13:44:40.683Z,101446.05
2023-05-05T13:47:09.245Z,101445.92
2023-05-05T13:49:37.765Z,101443.01
2023-05-05T13:52:06.271Z,101433.69
2023-05-05T13:54:40.381Z,101435.98
2023-05-05T13:57:11.397Z,101434.77
2023-05-05T13:59:39.924Z,101438.30
2023-05-05T14:02:08.270Z,101433.38
2023-05-05T14:04:37.786Z,101437.86
2023-05-05T14:07:06.791Z,101436.66
2023-05-05T14:09:35.168Z,101433.98
2023-05-05T14:12:03.771Z,101432.29
2023-05-05T14:14:31.941Z,101431.89
2023-05-05T14:17:00.562Z,101429.59
2023-05-05T14:19:29.121Z,101428.78
2023-05-05T14:21:57.772Z,101427.04
2023-05-05T14:24:26.289Z,101424.85
2023-05-05T14:26:54.573Z,101423.44
2023-05-05T14:29:23.268Z,101417.45
2023-05-05T14:31:51.999Z,101417.94
2023-05-05T14:34:20.444Z,101416.69
2023-05-05T14:36:49.039Z,101418.09
2023-05-05T14:39:17.622Z,101423.29
2023-05-05T14:41:46.728Z,101419.61
2023-05-05T14:44:14.942Z,101420.84
2023-05-05T14:46:45.998Z,101417.70
2023-05-05T14:49:15.155Z,101415.55
2023-05-05T14:51:45.278Z,101416.20
2023-05-05T14:54:24.540Z,101415.83
2023-05-05T14:56:56.585Z,101414.70
2023-05-05T14:59:29.685Z,101415.52
2023-05-05T15:01:58.181Z,101417.70
2023-05-05T15:04:26.849Z,101408.90
2023-05-05T15:06:55.450Z,101408.85
2023-05-05T15:09:23.713Z,101405.41
2023-05-05T15:11:52.006Z,101403.68
2023-05-05T15:14:20.225Z,101397.33
2023-05-05T15:16:48.672Z,101397.16
2023-05-05T15:19:17.563Z,101390.09
2023-05-05T15:21:54.161Z,101389.32
2023-05-05T15:24:22.677Z,101384.25
2023-05-05T15:26:51.418Z,101385.92
2023-05-05T15:29:20.119Z,101381.95
2023-05-05T15:31:48.932Z,101380.71
2023-05-05T15:34:17.086Z,101379.77
2023-05-05T15:36:45.568Z,101374.20
2023-05-05T15:39:14.250Z,101374.39
2023-05-05T15:41:45.338Z,101371.84
2023-05-05T15:44:16.651Z,101370.87
2023-05-05T15:46:45.064Z,101367.73
2023-05-05T15:49:13.338Z,101370.29
2023-05-05T15:51:42.017Z,101368.48
2023-05-05T15:54:10.409Z,101365.52
2023-05-05T15:56:38.888Z,101359.90
2023-05-05T15:59:07.800Z,101362.05
2023-05-05T16:01:36.663Z,101360.39
2023-05-05T16:04:05.493Z,101357.62
2023-05-05T16:06:34.571Z,101357.39
2023-05-05T16:09:09.092Z,101355.61
2023-05-05T16:11:39.950Z,101353.64
2023-05-05T16:14:08.224Z,101354.36
2023-05-05T16:16:37.097Z,101357.01
2023-05-05T16:19:05.504Z,101350.84
2023-05-05T16:21:33.677Z,101352.70
2023-05-05T16:24:04.528Z,101354.79
2023-05-05T16:26:33.000Z,101353.48
2023-05-05T16:29:04.137Z,101353.26
2023-05-05T16:31:34.152Z,101355.85
2023-05-05T16:34:03.318Z,101358.38
2023-05-05T16:36:32.391Z,101362.14
2023-05-05T16:39:01.233Z,101361.09
2023-05-05T16:41:30.086Z,101362.83
2023-05-05T16:43:58.875Z,101363.60
2023-05-05T16:46:27.230Z,101364.70
2023-05-05T16:48:55.832Z,101365.58
2023-05-05T16:51:24.289Z,101366.81
2023-05-05T16:53:52.610Z,101366.59
2023-05-05T16:56:21.394Z,101369.77
2023-05-05T16:58:49.986Z,101367.61
2023-05-05T17:01:18.279Z,101376.45
2023-05-05T17:03:46.551Z,101373.67
2023-05-05T17:06:15.243Z,101379.09
2023-05-05T17:08:43.331Z,101379.23
2023-05-05T17:11:12.015Z,101383.98
2023-05-05T17:13:40.907Z,101388.63
2023-05-05T17:16:09.427Z,101392.34
2023-05-05T17:18:37.732Z,101390.10
2023-05-05T17:21:09.235Z,101389.27
2023-05-05T17:23:37.723Z,101392.41
2023-05-05T17:26:06.014Z,101394.44
2023-05-05T17:28:34.592Z,101391.73
2023-05-05T17:31:03.406Z,101392.05
2023-05-05T17:33:32.759Z,101393.10
2023-05-05T17:36:03.760Z,101395.40
2023-05-05T17:38:32.632Z,101397.63
2023-05-05T17:41:01.042Z,101398.19
2023-05-05T17:43:29.144Z,101401.55
2023-05-05T17:45:57.665Z,101404.33
2023-05-05T17:48:26.764Z,101408.11
2023-05-05T17:50:55.081Z,101412.65
2023-05-05T17:53:23.552Z,101416.86
2023-05-05T17:55:52.250Z,101418.15
2023-05-05T17:58:21.148Z,101423.70
2023-05-05T18:00:49.422Z,101427.61
2023-05-05T18:03:18.033Z,101426.86
2023-05-05T18:05:46.709Z,101429.05
2023-05-05T18:08:15.223Z,101435.49
2023-05-05T18:10:43.639Z,101436.99
2023-05-05T18:13:11.810Z,101442.27
2023-05-05T18:15:40.633Z,101446.23
2023-05-05T18:18:10.297Z,101447.98
2023-05-05T18:20:38.567Z,101450.59
2023-05-05T18:23:09.421Z,101450.33
2023-05-05T18:25:39.311Z,101453.78
2023-05-05T18:28:07.694Z,101454.98
2023-05-05T18:30:36.390Z,101456.38
2023-05-05T18:33:05.526Z,101458.30
2023-05-05T18:35:34.179Z,101457.02
2023-05-05T18:38:06.223Z,101460.13
2023-05-05T18:40:37.425Z,101463.71
2023-05-05T18:43:05.574Z,101463.77
2023-05-05T18:45:33.926Z,101463.80
2023-05-05T18:48:03.154Z,101465.79
2023-05-05T18:50:33.391Z,101466.52
2023-05-05T18:53:07.722Z,101474.48
2023-05-05T18:55:36.295Z,101477.75
2023-05-05T18:58:04.684Z,101480.87
2023-05-05T19:00:32.881Z,101485.14
2023-05-05T19:03:03.816Z,101484.40
2023-05-05T19:05:34.195Z,101482.80
2023-05-05T19:08:02.551Z,101482.38
2023-05-05T19:10:31.001Z,101486.33
2023-05-05T19:12:59.517Z,101478.27
2023-05-05T19:15:28.131Z,101475.27
2023-05-05T19:18:02.783Z,101477.05
2023-05-05T19:20:32.038Z,101479.00
2023-05-05T19:23:03.940Z,101481.34
2023-05-05T19:25:32.366Z,101485.69
2023-05-05T19:28:01.010Z,101483.77
2023-05-05T19:30:29.524Z,101488.94
2023-05-05T19:32:58.467Z,101486.55
2023-05-05T19:35:27.029Z,101489.66
2023-05-05T19:37:56.225Z,101489.55
2023-05-05T19:40:24.927Z,101491.88
2023-05-05T19:42:53.199Z,101494.88
2023-05-05T19:45:21.590Z,101492.73
2023-05-05T19:47:49.774Z,101491.23
2023-05-05T19:50:18.658Z,101494.23
2023-05-05T19:52:47.047Z,101493.86
2023-05-05T19:55:15.935Z,101497.09
2023-05-05T19:57:44.764Z,101492.67
2023-05-05T20:00:13.782Z,101498.36
2023-05-05T20:02:42.170Z,101497.42
2023-05-05T20:05:14.111Z,101496.66
2023-05-05T20:07:42.365Z,101496.77
2023-05-05T20:10:13.500Z,101496.27
2023-05-05T20:12:47.872Z,101495.81
2023-05-05T20:15:19.400Z,101494.40
2023-05-05T20:17:48.717Z,101495.91
2023-05-05T20:20:20.933Z,101496.45
2023-05-05T20:22:49.702Z,101499.53
2023-05-05T20:25:18.157Z,101499.73
2023-05-05T20:27:46.661Z,101502.70
2023-05-05T20:30:15.023Z,101508.91
2023-05-05T20:32:43.539Z,101508.55
2023-05-05T20:35:13.335Z,101509.15
2023-05-05T20:37:42.038Z,101508.35
2023-05-05T20:40:15.521Z,101508.15
2023-05-05T20:42:45.774Z,101509.48
2023-05-05T20:45:14.334Z,101505.81
2023-05-05T20:47:42.649Z,101507.49
2023-05-05T20:50:11.823Z,101511.04
2023-05-05T20:52:40.095Z,101509.42
2023-05-05T20:55:08.768Z,101511.02
2023-05-05T20:57:37.706Z,101514.43
2023-05-05T21:00:07.573Z,101519.16
2023-05-05T21:02:36.328Z,101519.41
2023-05-05T21:05:06.093Z,101516.48
2023-05-05T21:07:34.817Z,101516.34
2023-05-05T21:10:04.566Z,101513.69
2023-05-05T21:12:34.239Z,101519.60
2023-05-05T21:15:07.451Z,101519.73
2023-05-05T21:17:40.093Z,101522.04
2023-05-05T21:20:10.677Z,101520.61
2023-05-05T21:22:46.054Z,101522.98
2023-05-05T21:25:17.173Z,101519.98
2023-05-05T21:27:46.957Z,101520.52
2023-05-05T21:30:15.896Z,101523.28
2023-05-05T21:32:45.052Z,101521.33
2023-05-05T21:35:13.751Z,101524.05
2023-05-05T21:37:42.472Z,101523.26
2023-05-05T21:40:13.899Z,101524.31
2023-05-05T21:42:43.422Z,101523.65
2023-05-05T21:45:12.467Z,101521.92
2023-05-05T21:47:41.030Z,101523.23
2023-05-05T21:50:10.279Z,101524.88
2023-05-05T21:52:38.884Z,101524.80
2023-05-05T21:55:10.790Z,101527.48
2023-05-05T21:57:39.137Z,101529.70
2023-05-05T22:00:09.150Z,101530.29
2023-05-05T22:02:45.465Z,101531.28
2023-05-05T22:05:14.317Z,101530.52
2023-05-05T22:07:42.394Z,101530.27
2023-05-05T22:10:11.184Z,101528.08
2023-05-05T22:12:39.903Z,101532.30
2023-05-05T22:15:09.369Z,101532.86
2023-05-05T22:17:38.226Z,101532.27
2023-05-05T22:20:09.389Z,101530.66
2023-05-05T22:22:37.719Z,101531.27
2023-05-05T22:25:06.456Z,101537.11
2023-05-05T22:27:34.684Z,101533.71
2023-05-05T22:30:04.222Z,101534.50
2023-05-05T22:32:32.606Z,101532.91
2023-05-05T22:35:01.529Z,101534.15
2023-05-05T22:37:31.773Z,101532.08
2023-05-05T22:40:00.120Z,101531.39
2023-05-05T22:42:29.808Z,101535.15
2023-05-05T22:44:58.111Z,101535.34
2023-05-05T22:47:26.383Z,101535.89
2023-05-05T22:49:54.965Z,101535.45
2023-05-05T22:52:23.140Z,101534.90
2023-05-05T22:54:51.624Z,101538.11
2023-05-05T22:57:20.943Z,101534.87
2023-05-05T22:59:49.142Z,101544.05
2023-05-05T23:02:17.393Z,101543.98
2023-05-05T23:04:45.702Z,101538.81
2023-05-05T23:07:13.861Z,101543.33
2023-05-05T23:09:42.149Z,101538.78
2023-05-05T23:12:10.433Z,101538.40
2023-05-05T23:14:39.009Z,101539.54
2023-05-05T23:17:07.551Z,101538.32
2023-05-05T23:19:36.554Z,101536.14
2023-05-05T23:22:04.912Z,101537.46
2023-05-05T23:24:33.271Z,101538.54
2023-05-05T23:27:04.818Z,101539.08
2023-05-05T23:29:33.417Z,101540.17
2023-05-05T23:32:01.581Z,101539.80
2023-05-05T23:34:29.770Z,101539.02
2023-05-05T23:36:58.058Z,101537.27
2023-05-05T23:39:26.749Z,101544.48
2023-05-05T23:41:54.939Z,101547.37
2023-05-05T23:44:23.095Z,101546.44
2023-05-05T23:46:51.384Z,101552.56
2023-05-05T23:49:19.704Z,101551.52
2023-05-05T23:51:47.946Z,101548.04
2023-05-05T23:54:16.227Z,101549.19
2023-05-05T23:56:45.945Z,101549.52
2023-05-05T23:59:14.122Z,101550.97
